createdAt,value
2023-04-13T15:39:56.785Z,3.00
2023-04-13T15:42:23.511Z,3.38
2023-04-13T15:44:51.681Z,3.17
2023-04-13T15:47:18.348Z,3.00
2023-04-13T15:49:45.012Z,2.97
2023-04-13T15:52:11.809Z,2.30
2023-04-13T15:54:38.478Z,2.47
2023-04-13T15:57:08.035Z,2.17
2023-04-13T15:59:34.814Z,2.43
2023-04-13T16:02:02.398Z,2.40
2023-04-13T16:04:29.278Z,2.83
2023-04-13T16:07:11.874Z,2.73
2023-04-13T16:09:39.245Z,1.90
2023-04-13T16:12:12.620Z,2.00
2023-04-13T16:14:42.274Z,2.33
2023-04-13T16:17:09.832Z,2.70
2023-04-13T16:19:37.935Z,2.60
2023-04-13T16:22:05.844Z,2.40
2023-04-13T16:24:33.550Z,3.20
2023-04-13T16:27:00.751Z,3.07
2023-04-13T16:29:28.867Z,3.07
2023-04-13T16:31:56.433Z,2.60
2023-04-13T16:34:26.461Z,2.60
2023-04-13T16:36:55.052Z,2.67
2023-04-13T16:39:22.945Z,2.50
2023-04-13T16:41:50.110Z,2.50
2023-04-13T16:44:16.803Z,3.20
2023-04-13T16:46:43.800Z,3.00
2023-04-13T16:49:10.929Z,2.63
2023-04-13T16:51:37.843Z,2.90
2023-04-13T16:54:06.422Z,3.43
2023-04-13T16:56:33.422Z,2.80
2023-04-13T16:59:01.431Z,2.70
2023-04-13T17:01:28.849Z,2.80
2023-04-13T17:03:56.703Z,2.80
2023-04-13T17:06:23.489Z,2.80
2023-04-13T17:08:50.333Z,2.13
2023-04-13T17:11:17.068Z,2.70
2023-04-13T17:13:43.766Z,2.57
2023-04-13T17:16:10.904Z,2.72
2023-04-13T17:18:37.816Z,2.47
2023-04-13T17:21:05.758Z,3.13
2023-04-13T17:23:32.378Z,2.13
2023-04-13T17:25:59.146Z,4.00
2023-04-13T17:28:25.832Z,3.70
2023-04-13T17:30:52.668Z,3.63
2023-04-13T17:33:19.718Z,3.17
2023-04-13T17:35:46.482Z,3.17
2023-04-13T17:38:13.162Z,2.67
2023-04-13T17:40:39.839Z,3.27
2023-04-13T17:43:08.199Z,2.73
2023-04-13T17:45:34.955Z,2.90
2023-04-13T17:48:01.941Z,2.13
2023-04-13T17:50:28.722Z,2.40
2023-04-13T17:52:55.387Z,3.13
2023-04-13T17:55:22.081Z,3.23
2023-04-13T17:57:48.874Z,3.03
2023-04-13T18:00:16.030Z,2.83
2023-04-13T18:02:42.863Z,3.40
2023-04-13T18:05:15.236Z,4.00
2023-04-13T18:07:43.121Z,3.73
2023-04-13T18:10:10.697Z,2.90
2023-04-13T18:12:43.556Z,3.50
2023-04-13T18:15:10.660Z,4.23
2023-04-13T18:17:38.678Z,4.53
2023-04-13T18:20:06.411Z,3.87
2023-04-13T18:22:33.228Z,3.73
2023-04-13T18:25:00.183Z,4.63
2023-04-13T18:27:27.582Z,5.50
2023-04-13T18:29:55.401Z,4.37
2023-04-13T18:32:22.793Z,2.93
2023-04-13T18:34:49.835Z,4.10
2023-04-13T18:37:16.916Z,4.00
2023-04-13T18:39:44.925Z,5.43
2023-04-13T18:42:11.716Z,4.63
2023-04-13T18:44:38.454Z,4.83
2023-04-13T18:47:05.446Z,5.40
2023-04-13T18:49:32.441Z,6.23
2023-04-13T18:51:59.228Z,7.93
2023-04-13T18:54:25.850Z,43.37
2023-04-13T18:56:52.526Z,41.60
2023-04-13T18:59:19.142Z,31.50
2023-04-13T19:01:46.761Z,31.70
2023-04-13T19:04:13.715Z,29.67
2023-04-13T19:06:41.036Z,30.03
2023-04-13T19:09:08.213Z,26.40
2023-04-13T19:11:51.445Z,33.23
2023-04-13T19:14:18.151Z,32.17
2023-04-13T19:16:46.805Z,33.77
2023-04-13T19:19:15.086Z,33.63
2023-04-13T19:21:41.973Z,33.47
2023-04-13T19:24:12.286Z,32.70
2023-04-13T19:26:40.277Z,28.90
2023-04-13T19:29:07.073Z,27.00
